Time;durP1;ratioP1;P1;durP2;ratioP2;P2;SDS_P1;SDS_P2;PMS_P1;PMS_P2;Temp;Humidity;BMP_temperature;BMP_pressure;BME280_temperature;BME280_humidity;BME280_pressure;Samples;Min_cycle;Max_cycle;Signal;HPM_P1;HPM_P2
2023/03/27 00:00:11;;;;;;;10.20;4.55;;;;;;;;;;5104028;28;20063;-76
2023/03/27 00:02:40;;;;;;;7.43;4.38;;;;;;;;;;5067277;28;20055;-78
2023/03/27 00:05:07;;;;;;;8.35;4.45;;;;;;;;;;5050238;28;20417;-78
2023/03/27 00:07:34;;;;;;;7.25;4.25;;;;;;;;;;5052443;28;20248;-78
2023/03/27 00:10:01;;;;;;;8.30;4.18;;;;;;;;;;5044313;28;20041;-78
2023/03/27 00:12:28;;;;;;;11.68;4.05;;;;;;;;;;5050111;28;20056;-79
2023/03/27 00:14:54;;;;;;;7.35;4.45;;;;;;;;;;5050236;28;20808;-79
2023/03/27 00:17:21;;;;;;;7.38;4.15;;;;;;;;;;5056026;28;20045;-80
2023/03/27 00:19:47;;;;;;;10.02;3.75;;;;;;;;;;5052095;28;20584;-79
2023/03/27 00:22:14;;;;;;;8.85;4.00;;;;;;;;;;5053794;28;20063;-82
2023/03/27 00:24:41;;;;;;;7.30;3.47;;;;;;;;;;5053335;28;20041;-79
2023/03/27 00:27:07;;;;;;;6.55;2.55;;;;;;;;;;5058739;28;20066;-78
2023/03/27 00:29:34;;;;;;;4.10;2.50;;;;;;;;;;5059476;28;20060;-78
2023/03/27 00:32:01;;;;;;;5.95;2.72;;;;;;;;;;5050581;28;20045;-79
2023/03/27 00:34:29;;;;;;;11.27;3.92;;;;;;;;;;5050723;28;20083;-78
2023/03/27 00:36:55;;;;;;;12.27;4.32;;;;;;;;;;5052385;28;20033;-81
2023/03/27 00:39:22;;;;;;;17.83;5.70;;;;;;;;;;5051797;28;20056;-79
2023/03/27 00:41:49;;;;;;;13.85;5.32;;;;;;;;;;5049452;28;20472;-78
2023/03/27 00:44:27;;;;;;;19.35;6.20;;;;;;;;;;5049894;28;20056;-78
2023/03/27 00:46:55;;;;;;;18.30;5.95;;;;;;;;;;5039867;28;20108;-79
2023/03/27 00:49:25;;;;;;;13.95;5.20;;;;;;;;;;5033865;28;20124;-79
2023/03/27 00:51:52;;;;;;;23.70;5.82;;;;;;;;;;5038220;28;20138;-80
2023/03/27 00:54:25;;;;;;;17.95;4.82;;;;;;;;;;5070340;28;20094;-79
2023/03/27 00:56:57;;;;;;;18.02;5.28;;;;;;;;;;5071508;28;20051;-77
2023/03/27 00:59:27;;;;;;;15.38;4.47;;;;;;;;;;5071297;28;20052;-75
2023/03/27 01:01:54;;;;;;;17.98;4.65;;;;;;;;;;5071630;28;20094;-80
2023/03/27 01:04:21;;;;;;;11.98;4.70;;;;;;;;;;5069886;28;20094;-81
2023/03/27 01:06:50;;;;;;;14.00;4.60;;;;;;;;;;5069737;28;20044;-80
2023/03/27 01:09:17;;;;;;;10.52;3.63;;;;;;;;;;5071311;28;20450;-79
2023/03/27 01:11:46;;;;;;;12.57;3.15;;;;;;;;;;5073110;28;20419;-80
2023/03/27 01:14:20;;;;;;;9.57;3.47;;;;;;;;;;5071931;28;20068;-79
2023/03/27 01:16:46;;;;;;;10.40;3.70;;;;;;;;;;5054785;28;20068;-79
2023/03/27 01:19:34;;;;;;;11.18;3.10;;;;;;;;;;5073142;28;20040;-79
2023/03/27 01:22:20;;;;;;;12.85;2.97;;;;;;;;;;5068037;28;20049;-78
2023/03/27 01:24:56;;;;;;;4.93;2.70;;;;;;;;;;5070946;28;20407;-78
2023/03/27 01:27:36;;;;;;;9.10;3.22;;;;;;;;;;5061963;28;20041;-77
2023/03/27 01:30:32;;;;;;;6.90;2.83;;;;;;;;;;5069595;28;20052;-80
2023/03/27 01:33:08;;;;;;;7.82;3.05;;;;;;;;;;5045104;28;20044;-80
2023/03/27 01:35:54;;;;;;;5.85;2.80;;;;;;;;;;5080329;28;20177;-78
2023/03/27 01:38:35;;;;;;;4.68;2.15;;;;;;;;;;5082404;28;20045;-78
2023/03/27 01:41:20;;;;;;;7.03;2.35;;;;;;;;;;5096336;28;20100;-77
2023/03/27 01:44:07;;;;;;;6.35;2.30;;;;;;;;;;5086310;28;20052;-79
2023/03/27 01:46:55;;;;;;;11.52;2.40;;;;;;;;;;5093031;28;20048;-81
2023/03/27 01:49:38;;;;;;;15.25;2.50;;;;;;;;;;5091887;28;20472;-81
2023/03/27 01:52:16;;;;;;;12.18;2.63;;;;;;;;;;5075651;28;20597;-80
2023/03/27 01:54:46;;;;;;;14.00;2.60;;;;;;;;;;5092589;28;20499;-81
2023/03/27 01:57:21;;;;;;;16.70;2.45;;;;;;;;;;5091993;28;20541;-80
2023/03/27 01:59:54;;;;;;;7.50;2.42;;;;;;;;;;5073268;28;20376;-81
2023/03/27 02:02:24;;;;;;;7.43;2.30;;;;;;;;;;5097870;28;20040;-80
2023/03/27 02:04:54;;;;;;;10.48;2.90;;;;;;;;;;5062367;28;20040;-80
2023/03/27 02:07:29;;;;;;;7.75;2.85;;;;;;;;;;5078968;28;20055;-78
2023/03/27 02:09:59;;;;;;;12.90;2.63;;;;;;;;;;5074135;28;20199;-80
2023/03/27 02:12:32;;;;;;;16.20;3.13;;;;;;;;;;5066699;28;20099;-80
2023/03/27 02:15:06;;;;;;;16.55;3.22;;;;;;;;;;5085864;28;20070;-77
2023/03/27 02:17:56;;;;;;;10.63;2.97;;;;;;;;;;5070730;28;20044;-79
2023/03/27 02:20:23;;;;;;;15.75;2.88;;;;;;;;;;5079153;28;20052;-77
2023/03/27 02:22:49;;;;;;;18.40;4.45;;;;;;;;;;5080685;28;20044;-80
2023/03/27 02:25:25;;;;;;;12.60;3.03;;;;;;;;;;5083493;28;20043;-81
2023/03/27 02:27:58;;;;;;;20.30;3.63;;;;;;;;;;5077384;28;20056;-80
2023/03/27 02:30:38;;;;;;;22.00;3.80;;;;;;;;;;5081026;28;20129;-78
2023/03/27 02:33:13;;;;;;;17.63;3.65;;;;;;;;;;5084713;28;20059;-79
2023/03/27 02:35:47;;;;;;;31.63;4.10;;;;;;;;;;5066021;28;20060;-79
2023/03/27 02:38:14;;;;;;;20.02;4.15;;;;;;;;;;5083816;28;20048;-80
2023/03/27 02:40:53;;;;;;;25.83;4.07;;;;;;;;;;5079126;28;20044;-82
2023/03/27 02:43:50;;;;;;;17.67;3.63;;;;;;;;;;5092215;28;20056;-82
2023/03/27 02:46:31;;;;;;;20.17;3.75;;;;;;;;;;5080617;28;20056;-79
2023/03/27 02:49:01;;;;;;;27.52;4.28;;;;;;;;;;5060189;28;20507;-79
2023/03/27 02:51:29;;;;;;;23.52;3.95;;;;;;;;;;5076276;28;20036;-79
2023/03/27 02:54:02;;;;;;;20.95;3.92;;;;;;;;;;5081310;28;20098;-77
2023/03/27 02:56:32;;;;;;;14.82;3.83;;;;;;;;;;5102338;28;20343;-77
2023/03/27 02:58:59;;;;;;;18.27;4.07;;;;;;;;;;5085895;28;20118;-79
2023/03/27 03:01:31;;;;;;;33.30;4.78;;;;;;;;;;5100028;28;20043;-78
2023/03/27 03:04:40;;;;;;;21.35;3.80;;;;;;;;;;5084078;28;20402;-81
2023/03/27 03:07:25;;;;;;;25.65;4.32;;;;;;;;;;5096688;28;20043;-80
2023/03/27 03:09:53;;;;;;;34.30;5.05;;;;;;;;;;5077150;28;20150;-78
2023/03/27 03:12:20;;;;;;;23.60;4.35;;;;;;;;;;5111113;28;20046;-79
2023/03/27 03:14:46;;;;;;;18.40;4.25;;;;;;;;;;5091019;28;20048;-78
2023/03/27 03:17:15;;;;;;;19.15;4.22;;;;;;;;;;5094284;28;20044;-78
2023/03/27 03:19:43;;;;;;;17.48;3.38;;;;;;;;;;5078947;28;20040;-80
2023/03/27 03:22:10;;;;;;;15.52;3.22;;;;;;;;;;5091020;28;20054;-79
2023/03/27 03:24:40;;;;;;;15.30;3.67;;;;;;;;;;5093645;28;20070;-79
2023/03/27 03:27:09;;;;;;;19.13;3.33;;;;;;;;;;5088922;28;20032;-77
2023/03/27 03:29:55;;;;;;;14.82;3.60;;;;;;;;;;5078753;28;20043;-80
2023/03/27 03:32:26;;;;;;;14.77;3.60;;;;;;;;;;5043799;28;20032;-80
2023/03/27 03:34:53;;;;;;;18.02;3.10;;;;;;;;;;5072068;28;20106;-79
2023/03/27 03:37:19;;;;;;;13.93;3.28;;;;;;;;;;5071430;28;20094;-78
2023/03/27 03:39:46;;;;;;;12.07;2.90;;;;;;;;;;5071728;28;20067;-78
2023/03/27 03:42:16;;;;;;;10.75;2.92;;;;;;;;;;5044289;28;20036;-79
2023/03/27 03:44:50;;;;;;;13.23;2.95;;;;;;;;;;5053879;28;20045;-81
2023/03/27 03:47:22;;;;;;;12.43;2.88;;;;;;;;;;5072330;28;20045;-78
2023/03/27 03:49:49;;;;;;;14.23;2.92;;;;;;;;;;5053121;28;20040;-79
2023/03/27 03:52:16;;;;;;;14.00;3.00;;;;;;;;;;5079307;28;20496;-79
2023/03/27 03:54:43;;;;;;;17.42;3.35;;;;;;;;;;5070568;28;20084;-78
2023/03/27 03:57:12;;;;;;;10.73;2.78;;;;;;;;;;5070189;28;20043;-79
2023/03/27 03:59:39;;;;;;;14.02;2.72;;;;;;;;;;5068964;28;20106;-78
2023/03/27 04:02:28;;;;;;;11.38;2.95;;;;;;;;;;5057476;28;20125;-81
2023/03/27 04:05:03;;;;;;;17.15;2.95;;;;;;;;;;5073265;28;20040;-78
2023/03/27 04:07:34;;;;;;;21.52;3.42;;;;;;;;;;5058019;28;20071;-80
2023/03/27 04:10:19;;;;;;;17.58;2.75;;;;;;;;;;5071021;28;20040;-79
2023/03/27 04:12:47;;;;;;;12.73;3.10;;;;;;;;;;5070495;28;20048;-79
2023/03/27 04:15:24;;;;;;;15.60;3.10;;;;;;;;;;5054197;28;20045;-82
2023/03/27 04:18:18;;;;;;;16.65;3.60;;;;;;;;;;5048434;28;20040;-80
2023/03/27 04:20:49;;;;;;;17.05;3.33;;;;;;;;;;5067383;28;20052;-79
2023/03/27 04:23:18;;;;;;;14.52;2.60;;;;;;;;;;5068024;28;20455;-80
2023/03/27 04:25:47;;;;;;;14.27;2.70;;;;;;;;;;5052798;28;20053;-79
2023/03/27 04:28:20;;;;;;;11.30;2.92;;;;;;;;;;5072115;28;20044;-80
2023/03/27 04:30:53;;;;;;;8.60;3.28;;;;;;;;;;5061483;28;20075;-78
2023/03/27 04:33:45;;;;;;;12.95;2.95;;;;;;;;;;5057767;28;20048;-77
2023/03/27 04:36:43;;;;;;;10.43;2.60;;;;;;;;;;5057919;28;20053;-78
2023/03/27 04:39:15;;;;;;;11.45;2.60;;;;;;;;;;5060979;28;20422;-81
2023/03/27 04:41:47;;;;;;;14.38;2.67;;;;;;;;;;5056709;28;20099;-79
2023/03/27 04:44:16;;;;;;;10.32;3.08;;;;;;;;;;5051276;28;20527;-79
2023/03/27 04:46:47;;;;;;;13.52;2.75;;;;;;;;;;5049995;28;20509;-78
2023/03/27 04:49:17;;;;;;;12.55;2.95;;;;;;;;;;5049522;28;20048;-78
2023/03/27 04:52:01;;;;;;;7.65;2.60;;;;;;;;;;5067452;28;20044;-79
2023/03/27 04:54:30;;;;;;;14.52;3.08;;;;;;;;;;5054688;28;20052;-81
2023/03/27 04:56:59;;;;;;;8.88;2.60;;;;;;;;;;5046779;28;20083;-81
2023/03/27 04:59:30;;;;;;;11.57;3.45;;;;;;;;;;5066898;28;20162;-82
2023/03/27 05:02:17;;;;;;;9.95;3.15;;;;;;;;;;5064107;28;20047;-75
2023/03/27 05:04:49;;;;;;;14.70;3.13;;;;;;;;;;5051773;28;20044;-77
2023/03/27 05:07:18;;;;;;;8.25;2.70;;;;;;;;;;5059113;28;20047;-78
2023/03/27 05:09:46;;;;;;;7.68;2.80;;;;;;;;;;5067565;28;20052;-78
2023/03/27 05:12:12;;;;;;;11.25;2.72;;;;;;;;;;5061936;28;20516;-77
2023/03/27 05:14:47;;;;;;;15.77;2.90;;;;;;;;;;5065513;28;20082;-78
2023/03/27 05:17:31;;;;;;;13.95;3.25;;;;;;;;;;5062303;28;20128;-79
2023/03/27 05:19:58;;;;;;;8.77;2.50;;;;;;;;;;5086306;28;20049;-77
2023/03/27 05:22:29;;;;;;;9.65;2.47;;;;;;;;;;5088353;28;20066;-77
2023/03/27 05:25:05;;;;;;;13.75;2.42;;;;;;;;;;5071876;28;20065;-76
2023/03/27 05:27:33;;;;;;;13.32;2.85;;;;;;;;;;5059711;28;20239;-76
2023/03/27 05:29:59;;;;;;;12.77;2.90;;;;;;;;;;5089256;28;20036;-76
2023/03/27 05:32:26;;;;;;;16.95;3.35;;;;;;;;;;5092434;28;20040;-77
2023/03/27 05:35:15;;;;;;;13.00;3.28;;;;;;;;;;5110265;28;20039;-79
2023/03/27 05:37:51;;;;;;;15.52;3.30;;;;;;;;;;5076456;28;20089;-78
2023/03/27 05:40:24;;;;;;;8.82;3.30;;;;;;;;;;5077275;28;20048;-79
2023/03/27 05:42:52;;;;;;;11.10;3.10;;;;;;;;;;5077193;28;20040;-81
2023/03/27 05:45:19;;;;;;;10.90;3.22;;;;;;;;;;5071120;28;20068;-79
2023/03/27 05:47:50;;;;;;;14.27;3.38;;;;;;;;;;5054830;28;20068;-78
2023/03/27 05:50:18;;;;;;;9.80;3.08;;;;;;;;;;5065689;28;20128;-81
2023/03/27 05:52:45;;;;;;;13.02;3.33;;;;;;;;;;5078468;28;20040;-80
2023/03/27 05:55:13;;;;;;;12.80;3.47;;;;;;;;;;5058322;28;20104;-80
2023/03/27 05:57:40;;;;;;;16.70;3.53;;;;;;;;;;5055126;28;20520;-79
2023/03/27 06:00:15;;;;;;;6.40;3.10;;;;;;;;;;5045794;28;20041;-79
2023/03/27 06:02:46;;;;;;;16.15;4.30;;;;;;;;;;5036463;28;20132;-80
2023/03/27 06:05:15;;;;;;;8.75;3.33;;;;;;;;;;5049266;28;20124;-80
2023/03/27 06:07:47;;;;;;;9.95;3.95;;;;;;;;;;5046071;28;20041;-80
2023/03/27 06:10:16;;;;;;;17.45;4.20;;;;;;;;;;5065244;28;20053;-78
2023/03/27 06:13:05;;;;;;;12.57;4.30;;;;;;;;;;5048923;28;20059;-80
2023/03/27 06:15:40;;;;;;;16.80;4.00;;;;;;;;;;5080670;28;20125;-77
2023/03/27 06:18:26;;;;;;;10.90;3.45;;;;;;;;;;5048872;28;20124;-77
2023/03/27 06:20:53;;;;;;;9.45;3.45;;;;;;;;;;5046612;28;20178;-76
2023/03/27 06:23:20;;;;;;;9.90;4.03;;;;;;;;;;5051467;28;20048;-77
2023/03/27 06:25:47;;;;;;;12.18;3.72;;;;;;;;;;5049664;28;20131;-80
2023/03/27 06:28:14;;;;;;;11.77;3.20;;;;;;;;;;5071611;28;20524;-78
2023/03/27 06:30:46;;;;;;;9.27;3.97;;;;;;;;;;5072973;28;20041;-78
2023/03/27 06:33:28;;;;;;;7.20;3.50;;;;;;;;;;5072412;28;20068;-80
2023/03/27 06:35:59;;;;;;;13.93;4.03;;;;;;;;;;5075298;28;20063;-79
2023/03/27 06:38:30;;;;;;;9.55;3.72;;;;;;;;;;5086367;28;20263;-78
2023/03/27 06:40:59;;;;;;;16.38;4.35;;;;;;;;;;5055303;28;20128;-78
2023/03/27 06:43:46;;;;;;;9.98;3.40;;;;;;;;;;5006818;28;20050;-80
2023/03/27 06:46:26;;;;;;;13.88;3.92;;;;;;;;;;5031935;28;20047;-80
2023/03/27 06:49:25;;;;;;;6.88;3.38;;;;;;;;;;5035585;28;20049;-80
2023/03/27 06:51:53;;;;;;;8.25;3.75;;;;;;;;;;5051493;28;20041;-79
2023/03/27 06:54:20;;;;;;;8.10;3.33;;;;;;;;;;5058319;28;20128;-79
2023/03/27 06:56:51;;;;;;;11.95;2.90;;;;;;;;;;5068915;28;20127;-78
2023/03/27 06:59:20;;;;;;;10.20;3.58;;;;;;;;;;5061755;28;20047;-78
2023/03/27 07:01:51;;;;;;;10.15;3.53;;;;;;;;;;5044745;28;20048;-81
2023/03/27 07:04:44;;;;;;;11.32;3.10;;;;;;;;;;5031643;28;20048;-79
2023/03/27 07:07:35;;;;;;;9.82;3.72;;;;;;;;;;5043064;28;20041;-77
2023/03/27 07:10:03;;;;;;;8.25;4.05;;;;;;;;;;5046002;28;20314;-80
2023/03/27 07:12:34;;;;;;;7.75;4.10;;;;;;;;;;5057496;28;20040;-80
2023/03/27 07:15:01;;;;;;;8.57;3.88;;;;;;;;;;5067515;28;20048;-80
2023/03/27 07:17:33;;;;;;;6.75;3.40;;;;;;;;;;5067874;28;20076;-77
2023/03/27 07:20:13;;;;;;;7.97;3.67;;;;;;;;;;5065528;28;20102;-79
2023/03/27 07:22:41;;;;;;;7.65;3.42;;;;;;;;;;5068599;28;20412;-79
2023/03/27 07:25:19;;;;;;;11.38;3.58;;;;;;;;;;5067874;28;20048;-79
2023/03/27 07:27:47;;;;;;;10.23;3.28;;;;;;;;;;5073819;28;20048;-80
2023/03/27 07:30:14;;;;;;;6.30;3.03;;;;;;;;;;5070211;28;20043;-79
2023/03/27 07:32:43;;;;;;;6.50;3.20;;;;;;;;;;5054080;28;20041;-79
2023/03/27 07:35:11;;;;;;;6.78;2.47;;;;;;;;;;5054305;28;20575;-80
2023/03/27 07:37:57;;;;;;;6.75;2.85;;;;;;;;;;5078641;28;20443;-81
2023/03/27 07:40:35;;;;;;;9.35;3.00;;;;;;;;;;5072332;28;20054;-79
2023/03/27 07:43:42;;;;;;;;;;;;;;;;;;5046841;28;20037;-79
2023/03/27 07:46:09;;;;;;;8.45;2.30;;;;;;;;;;5057990;28;20346;-80
2023/03/27 07:48:36;;;;;;;7.70;2.50;;;;;;;;;;5038608;28;20044;-80
2023/03/27 07:51:04;;;;;;;5.95;2.00;;;;;;;;;;5013769;28;20625;-80
2023/03/27 07:53:34;;;;;;;6.90;2.08;;;;;;;;;;5031455;28;20043;-80
2023/03/27 07:56:32;;;;;;;3.72;2.00;;;;;;;;;;5048492;28;20051;-80
2023/03/27 07:59:19;;;;;;;5.50;1.77;;;;;;;;;;5050501;28;20047;-80
2023/03/27 08:01:49;;;;;;;7.80;2.10;;;;;;;;;;5050452;28;20049;-80
2023/03/27 08:04:19;;;;;;;8.40;2.53;;;;;;;;;;5052074;28;20087;-80
2023/03/27 08:07:01;;;;;;;7.13;2.22;;;;;;;;;;5051375;28;20036;-80
2023/03/27 08:09:29;;;;;;;5.78;2.58;;;;;;;;;;5051575;28;20508;-80
2023/03/27 08:11:55;;;;;;;5.55;2.13;;;;;;;;;;5036085;28;20110;-81
2023/03/27 08:14:25;;;;;;;7.22;2.35;;;;;;;;;;5051920;28;20047;-80
2023/03/27 08:16:56;;;;;;;4.68;2.40;;;;;;;;;;5051430;28;20064;-81
2023/03/27 08:19:44;;;;;;;4.63;2.17;;;;;;;;;;5067807;28;20052;-79
2023/03/27 08:22:12;;;;;;;5.65;1.80;;;;;;;;;;5054978;28;20044;-81
2023/03/27 08:24:59;;;;;;;4.68;1.52;;;;;;;;;;5069751;28;20041;-80
2023/03/27 08:27:26;;;;;;;4.90;1.30;;;;;;;;;;5081161;28;20044;-81
2023/03/27 08:29:53;;;;;;;8.25;1.60;;;;;;;;;;5065939;28;20056;-79
2023/03/27 08:32:20;;;;;;;6.25;1.67;;;;;;;;;;5076049;28;20109;-80
2023/03/27 08:34:50;;;;;;;3.05;1.40;;;;;;;;;;5091698;28;20048;-79
2023/03/27 08:37:20;;;;;;;5.43;1.50;;;;;;;;;;5096010;28;20409;-78
2023/03/27 08:40:28;;;;;;;8.80;1.60;;;;;;;;;;5114023;28;20050;-79
2023/03/27 08:43:17;;;;;;;4.40;1.25;;;;;;;;;;5108856;28;20062;-77
2023/03/27 08:45:48;;;;;;;6.05;1.38;;;;;;;;;;5125860;28;20059;-78
2023/03/27 08:48:36;;;;;;;4.50;1.40;;;;;;;;;;5099631;28;20276;-78
2023/03/27 08:51:08;;;;;;;3.75;1.08;;;;;;;;;;5091282;28;20040;-79
2023/03/27 08:53:39;;;;;;;7.30;1.30;;;;;;;;;;5070187;28;20040;-78
2023/03/27 08:56:12;;;;;;;4.40;1.20;;;;;;;;;;5061056;28;20040;-78
2023/03/27 08:58:44;;;;;;;4.07;0.80;;;;;;;;;;5065660;28;20113;-79
2023/03/27 09:01:25;;;;;;;5.45;1.00;;;;;;;;;;5063686;28;20055;-77
2023/03/27 09:04:13;;;;;;;16.35;1.38;;;;;;;;;;5066005;28;20051;-78
2023/03/27 09:06:47;;;;;;;3.80;1.10;;;;;;;;;;5065458;28;20075;-80
2023/03/27 09:09:20;;;;;;;3.30;1.00;;;;;;;;;;5066461;28;20048;-80
2023/03/27 09:11:51;;;;;;;5.35;1.20;;;;;;;;;;5065891;28;20124;-79
2023/03/27 09:14:30;;;;;;;6.70;1.38;;;;;;;;;;5053115;28;20055;-79
2023/03/27 09:16:59;;;;;;;6.32;1.30;;;;;;;;;;5060502;28;20067;-80
2023/03/27 09:19:35;;;;;;;5.05;0.90;;;;;;;;;;5049312;28;20209;-79
2023/03/27 09:22:09;;;;;;;8.15;0.98;;;;;;;;;;5065854;28;20044;-81
2023/03/27 09:24:49;;;;;;;8.52;1.50;;;;;;;;;;5066617;28;20052;-79
2023/03/27 09:27:51;;;;;;;3.50;1.00;;;;;;;;;;5027769;28;20047;-79
2023/03/27 09:30:28;;;;;;;7.35;1.50;;;;;;;;;;5069703;28;20044;-79
2023/03/27 09:33:19;;;;;;;5.50;1.40;;;;;;;;;;5055168;28;20044;-80
2023/03/27 09:35:47;;;;;;;7.05;1.20;;;;;;;;;;5049093;28;20049;-78
2023/03/27 09:38:15;;;;;;;3.00;0.90;;;;;;;;;;5050249;28;20105;-79
2023/03/27 09:40:56;;;;;;;5.35;0.93;;;;;;;;;;5048816;28;20102;-78
2023/03/27 09:43:28;;;;;;;7.22;1.15;;;;;;;;;;5049718;28;20040;-79
2023/03/27 09:45:59;;;;;;;8.07;1.10;;;;;;;;;;5045250;28;20075;-80
2023/03/27 09:48:33;;;;;;;3.85;1.38;;;;;;;;;;5048704;28;20052;-80
2023/03/27 09:51:01;;;;;;;5.57;0.82;;;;;;;;;;5045136;28;20037;-79
2023/03/27 09:53:37;;;;;;;6.93;1.10;;;;;;;;;;5046798;28;20511;-79
2023/03/27 09:56:15;;;;;;;11.90;1.27;;;;;;;;;;5064251;28;20051;-79
2023/03/27 09:58:49;;;;;;;8.38;1.27;;;;;;;;;;5046780;28;20133;-81
2023/03/27 10:01:34;;;;;;;7.65;1.35;;;;;;;;;;5044849;28;20096;-80
2023/03/27 10:04:16;;;;;;;8.27;1.23;;;;;;;;;;5062599;28;20044;-77
2023/03/27 10:06:47;;;;;;;3.45;1.02;;;;;;;;;;5048700;28;20036;-80
2023/03/27 10:09:35;;;;;;;6.20;1.10;;;;;;;;;;5047102;28;20068;-81
2023/03/27 10:12:06;;;;;;;4.28;1.20;;;;;;;;;;5043314;28;22520;-79
2023/03/27 10:14:37;;;;;;;7.38;1.10;;;;;;;;;;5052565;28;20057;-80
2023/03/27 10:17:04;;;;;;;10.25;1.13;;;;;;;;;;5077674;28;20101;-81
2023/03/27 10:19:35;;;;;;;7.13;1.10;;;;;;;;;;5085649;28;20048;-78
2023/03/27 10:22:15;;;;;;;7.65;1.35;;;;;;;;;;5084737;28;20469;-81
2023/03/27 10:24:44;;;;;;;18.38;1.40;;;;;;;;;;5077247;28;20109;-81
2023/03/27 10:27:20;;;;;;;7.68;1.05;;;;;;;;;;5091210;28;20052;-80
2023/03/27 10:30:25;;;;;;;8.65;1.40;;;;;;;;;;5091916;28;20175;-79
2023/03/27 10:32:56;;;;;;;5.55;1.27;;;;;;;;;;5059950;28;20127;-81
2023/03/27 10:35:43;;;;;;;6.43;1.27;;;;;;;;;;5079047;28;20125;-79
2023/03/27 10:38:31;;;;;;;7.50;1.40;;;;;;;;;;5087119;28;20040;-79
2023/03/27 10:41:18;;;;;;;3.67;1.10;;;;;;;;;;5094508;28;20051;-79
2023/03/27 10:43:56;;;;;;;9.07;1.67;;;;;;;;;;5079416;28;20052;-79
2023/03/27 10:46:25;;;;;;;8.60;1.55;;;;;;;;;;5080736;28;20235;-80
2023/03/27 10:49:16;;;;;;;5.10;1.30;;;;;;;;;;5067196;28;20045;-77
2023/03/27 10:51:53;;;;;;;5.28;1.30;;;;;;;;;;5061196;28;20048;-79
2023/03/27 10:54:39;;;;;;;8.10;1.45;;;;;;;;;;5063615;28;20451;-79
2023/03/27 10:57:16;;;;;;;5.90;1.10;;;;;;;;;;5055964;28;20049;-80
2023/03/27 10:59:49;;;;;;;7.03;1.55;;;;;;;;;;5062096;28;20065;-77
2023/03/27 11:02:25;;;;;;;7.70;1.33;;;;;;;;;;5058463;28;20091;-78
2023/03/27 11:04:56;;;;;;;7.18;1.20;;;;;;;;;;5050266;28;20056;-80
2023/03/27 11:07:42;;;;;;;4.35;1.23;;;;;;;;;;5050636;28;20045;-80
2023/03/27 11:10:17;;;;;;;4.82;1.00;;;;;;;;;;5050147;28;20048;-81
2023/03/27 11:12:49;;;;;;;8.68;1.58;;;;;;;;;;5051581;28;20037;-81
2023/03/27 11:15:21;;;;;;;7.15;1.63;;;;;;;;;;5049972;28;20098;-81
2023/03/27 11:17:56;;;;;;;5.65;1.42;;;;;;;;;;5034242;28;20049;-80
2023/03/27 11:20:32;;;;;;;4.40;1.42;;;;;;;;;;5033500;28;20041;-81
2023/03/27 11:23:27;;;;;;;5.63;1.35;;;;;;;;;;5073040;28;20605;-78
2023/03/27 11:26:23;;;;;;;9.25;1.67;;;;;;;;;;5049019;28;20044;-81
2023/03/27 11:29:00;;;;;;;6.18;1.33;;;;;;;;;;5073650;28;20040;-80
2023/03/27 11:31:45;;;;;;;7.75;1.38;;;;;;;;;;5093946;28;20526;-82
2023/03/27 11:34:41;;;;;;;4.53;1.17;;;;;;;;;;5094049;28;20110;-79
2023/03/27 11:37:38;;;;;;;3.17;0.98;;;;;;;;;;5078879;28;20070;-80
2023/03/27 11:40:08;;;;;;;7.30;1.92;;;;;;;;;;5092906;28;20043;-81
2023/03/27 11:42:38;;;;;;;3.47;1.20;;;;;;;;;;5093550;28;20047;-80
2023/03/27 11:45:10;;;;;;;7.05;2.28;;;;;;;;;;5092591;28;20525;-81
2023/03/27 11:47:41;;;;;;;7.05;1.55;;;;;;;;;;5094675;28;20071;-80
2023/03/27 11:50:21;;;;;;;6.57;1.40;;;;;;;;;;5091251;28;20039;-80
2023/03/27 11:52:56;;;;;;;8.30;1.40;;;;;;;;;;5072759;28;20040;-82
2023/03/27 11:55:47;;;;;;;9.57;1.57;;;;;;;;;;5077219;28;20060;-81
2023/03/27 11:58:27;;;;;;;4.90;1.20;;;;;;;;;;5073609;28;20052;-81
2023/03/27 12:01:13;;;;;;;4.13;1.30;;;;;;;;;;5056584;28;20105;-82
2023/03/27 12:04:23;;;;;;;1.90;1.02;;;;;;;;;;5073754;28;20113;-83
2023/03/27 12:07:00;;;;;;;4.13;1.00;;;;;;;;;;4972329;28;20145;-82
2023/03/27 12:09:42;;;;;;;3.65;0.93;;;;;;;;;;4964670;28;20081;-83
2023/03/27 12:12:40;;;;;;;3.63;1.10;;;;;;;;;;5038691;28;20041;-83
2023/03/27 12:15:10;;;;;;;4.53;1.30;;;;;;;;;;5050023;28;20066;-80
2023/03/27 12:17:49;;;;;;;3.70;1.10;;;;;;;;;;5050228;28;20477;-79
2023/03/27 12:20:36;;;;;;;5.38;1.38;;;;;;;;;;5049433;28;20128;-82
2023/03/27 12:23:15;;;;;;;3.70;1.20;;;;;;;;;;5047852;28;20135;-83
2023/03/27 12:26:21;;;;;;;8.63;1.70;;;;;;;;;;5022641;28;20136;-81
2023/03/27 12:29:16;;;;;;;13.18;1.52;;;;;;;;;;5064409;28;20097;-81
2023/03/27 12:32:09;;;;;;;4.57;1.73;;;;;;;;;;5072144;28;20580;-82
2023/03/27 12:34:54;;;;;;;3.80;1.48;;;;;;;;;;5104910;28;20043;-81
2023/03/27 12:37:42;;;;;;;5.32;1.52;;;;;;;;;;5072026;28;20121;-81
2023/03/27 12:40:24;;;;;;;4.95;1.60;;;;;;;;;;5078008;28;20032;-81
2023/03/27 12:42:53;;;;;;;4.57;0.95;;;;;;;;;;5072159;28;20036;-81
2023/03/27 12:45:23;;;;;;;2.20;1.00;;;;;;;;;;5055597;28;21460;-78
2023/03/27 12:48:15;;;;;;;3.83;1.45;;;;;;;;;;5072248;28;20527;-79
2023/03/27 12:50:42;;;;;;;4.65;1.13;;;;;;;;;;5072437;28;20047;-81
2023/03/27 12:53:24;;;;;;;5.22;1.00;;;;;;;;;;5054347;28;20059;-80
2023/03/27 12:56:11;;;;;;;2.38;0.88;;;;;;;;;;5051306;28;20094;-80
2023/03/27 12:58:39;;;;;;;4.78;0.90;;;;;;;;;;5052300;28;20055;-79
2023/03/27 13:01:30;;;;;;;4.75;1.10;;;;;;;;;;5037246;28;20425;-78
2023/03/27 13:04:15;;;;;;;3.17;1.20;;;;;;;;;;5049170;28;20143;-78
2023/03/27 13:06:57;;;;;;;2.63;1.10;;;;;;;;;;5048157;28;20051;-80
2023/03/27 13:09:41;;;;;;;4.45;1.35;;;;;;;;;;5046252;28;20045;-75
2023/03/27 13:12:17;;;;;;;5.80;1.73;;;;;;;;;;5039864;28;20049;-82
2023/03/27 13:14:55;;;;;;;3.42;1.17;;;;;;;;;;5047338;28;20148;-79
2023/03/27 13:17:41;;;;;;;4.32;1.70;;;;;;;;;;5047547;28;20517;-81
2023/03/27 13:20:15;;;;;;;7.80;1.90;;;;;;;;;;5029792;28;20079;-78
2023/03/27 13:22:47;;;;;;;3.25;1.10;;;;;;;;;;5045342;28;20127;-82
2023/03/27 13:25:21;;;;;;;2.65;1.00;;;;;;;;;;5048069;28;20048;-81
2023/03/27 13:27:51;;;;;;;2.63;0.70;;;;;;;;;;5063822;28;20043;-81
2023/03/27 13:30:37;;;;;;;2.40;0.80;;;;;;;;;;5047472;28;20055;-82
2023/03/27 13:33:15;;;;;;;3.13;0.82;;;;;;;;;;5088275;28;20503;-80
2023/03/27 13:35:51;;;;;;;2.35;0.77;;;;;;;;;;5060970;28;20475;-82
2023/03/27 13:38:39;;;;;;;2.20;0.82;;;;;;;;;;5059052;28;20105;-82
2023/03/27 13:41:25;;;;;;;2.70;0.90;;;;;;;;;;5068295;28;20036;-81
2023/03/27 13:43:53;;;;;;;4.45;1.00;;;;;;;;;;5044344;28;20526;-81
2023/03/27 13:46:32;;;;;;;4.13;0.85;;;;;;;;;;5033006;28;20064;-82
2023/03/27 13:49:16;;;;;;;4.60;1.00;;;;;;;;;;5043763;28;20499;-80
2023/03/27 13:51:49;;;;;;;6.13;0.90;;;;;;;;;;5050482;28;20094;-81
2023/03/27 13:54:29;;;;;;;3.15;1.20;;;;;;;;;;5052805;28;20045;-82
2023/03/27 13:57:03;;;;;;;2.10;0.90;;;;;;;;;;5046153;28;20094;-80
2023/03/27 13:59:55;;;;;;;5.03;1.13;;;;;;;;;;5054442;28;20065;-80
2023/03/27 14:02:57;;;;;;;5.43;0.95;;;;;;;;;;5059633;28;20068;-79
2023/03/27 14:05:34;;;;;;;4.07;1.17;;;;;;;;;;5055747;28;20515;-78
2023/03/27 14:08:20;;;;;;;3.63;1.20;;;;;;;;;;5094420;28;20687;-80
2023/03/27 14:11:29;;;;;;;2.35;0.90;;;;;;;;;;5085056;28;20069;-79
2023/03/27 14:13:59;;;;;;;5.13;1.10;;;;;;;;;;5071283;28;20058;-81
2023/03/27 14:16:40;;;;;;;12.18;4.97;;;;;;;;;;5075603;28;20036;-80
2023/03/27 14:19:17;;;;;;;3.17;0.90;;;;;;;;;;5076182;28;20044;-80
2023/03/27 14:21:49;;;;;;;2.65;1.02;;;;;;;;;;5073110;28;20087;-78
2023/03/27 14:24:23;;;;;;;3.60;1.00;;;;;;;;;;5091396;28;20054;-78
2023/03/27 14:27:00;;;;;;;2.60;1.25;;;;;;;;;;5072681;28;20040;-78
2023/03/27 14:29:31;;;;;;;2.67;1.10;;;;;;;;;;5060564;28;20508;-77
2023/03/27 14:32:02;;;;;;;2.97;0.93;;;;;;;;;;5069163;28;20056;-78
2023/03/27 14:34:33;;;;;;;4.63;1.15;;;;;;;;;;5068894;28;20043;-79
2023/03/27 14:37:44;;;;;;;3.78;1.27;;;;;;;;;;5067581;28;20048;-79
2023/03/27 14:40:21;;;;;;;6.40;1.27;;;;;;;;;;5052242;28;20061;-78
2023/03/27 14:42:54;;;;;;;3.05;1.02;;;;;;;;;;5038947;28;20500;-79
2023/03/27 14:45:26;;;;;;;5.63;1.27;;;;;;;;;;5017934;28;20114;-79
2023/03/27 14:47:56;;;;;;;3.60;0.75;;;;;;;;;;5049674;28;20592;-79
2023/03/27 14:50:26;;;;;;;3.65;0.70;;;;;;;;;;5062608;28;20048;-78
2023/03/27 14:52:54;;;;;;;4.95;1.95;;;;;;;;;;5055065;28;20068;-77
2023/03/27 14:55:35;;;;;;;2.42;0.85;;;;;;;;;;5050858;28;20049;-80
2023/03/27 14:58:34;;;;;;;4.28;0.85;;;;;;;;;;5051567;28;20041;-80
2023/03/27 15:01:03;;;;;;;2.60;1.33;;;;;;;;;;5064212;28;20055;-79
2023/03/27 15:03:33;;;;;;;5.97;1.20;;;;;;;;;;5071791;28;20061;-81
2023/03/27 15:06:12;;;;;;;4.65;1.30;;;;;;;;;;5072924;28;20072;-79
2023/03/27 15:08:49;;;;;;;2.90;0.77;;;;;;;;;;5075953;28;20115;-78
2023/03/27 15:11:38;;;;;;;2.40;1.00;;;;;;;;;;5071705;28;20064;-79
2023/03/27 15:14:17;;;;;;;2.45;1.10;;;;;;;;;;5070839;28;20129;-79
2023/03/27 15:16:47;;;;;;;2.67;1.27;;;;;;;;;;5054610;28;20048;-80
2023/03/27 15:19:18;;;;;;;3.67;1.27;;;;;;;;;;5071725;28;20419;-79
2023/03/27 15:21:54;;;;;;;3.20;1.00;;;;;;;;;;5070871;28;20416;-80
2023/03/27 15:24:42;;;;;;;7.70;1.10;;;;;;;;;;5068872;28;20131;-80
2023/03/27 15:27:16;;;;;;;6.68;1.00;;;;;;;;;;5072850;28;20598;-80
2023/03/27 15:29:46;;;;;;;2.95;0.70;;;;;;;;;;5073246;28;20107;-80